Flight Track Log - Related Links

Times and Time Zones

All times are in EDT time to prevent confusion due to time zone crossing. See the GJS3707 flight status page for this flight to view local times or setup timezone preferences in your user account.

Time Position Orientation Groundspeed Altitude Reporting Facility
EDT Latitude Longitude Course Direction KTS MPH feet Rate Location/Type
Mon 11:40:32 AM 41.9667 -88.0000 270° West 191 220 3,100  Level Chicago TRACON
Mon 11:41:33 AM 41.9667 -88.0833 270° West 226 260 4,700 1,793 Climbing Chicago TRACON
Mon 11:42:00 AM 41.9667 -88.3745 270° West  Level FlightAware Approximate
Mon 11:43:00 AM 41.9667 -88.5327 270° West  Level FlightAware Approximate
Mon 11:43:26 AM 42.0078 -88.2361 290° West 262 302 8,300  Level Chicago Center
Mon 11:44:00 AM 41.9667 -88.6909 270° West  Level FlightAware Approximate
Mon 11:44:28 AM 42.0347 -88.3306 291° West 273 314 10,600  Level Chicago Center
Mon 11:45:00 AM 41.9668 -88.8491 270° West  Level FlightAware Approximate
Mon 11:45:30 AM 42.0394 -88.4486 273° West 267 307 12,700  Level Chicago Center
Mon 11:46:31 AM 42.0414 -88.5600 271° West 294 338 13,800 1,512 Climbing Chicago Center
Mon 11:47:33 AM 42.0425 -88.6814 271° West 323 372 15,800 1,887 Climbing Chicago Center
Mon 11:48:35 AM 42.0478 -88.8000 273° West 321 369 17,700 1,645 Climbing Chicago Center
Mon 11:49:37 AM 42.0531 -88.9236 273° West 330 380 19,200 1,597 Climbing Chicago Center
Mon 11:50:39 AM 42.0583 -89.0775 273° West 346 398 21,000 1,512 Climbing Chicago Center
Mon 11:51:40 AM 42.0628 -89.2089 273° West 353 406 22,300 1,220 Climbing Chicago Center
Mon 11:52:42 AM 42.0653 -89.3483 271° West 373 429 23,500 1,016 Climbing Chicago Center
Mon 11:53:44 AM 42.0897 -89.4875 283° West 394 453 24,400 968 Climbing Chicago Center
Mon 11:54:46 AM 42.1258 -89.6333 289° West 408 470 25,500 976 Climbing Chicago Center
Mon 11:55:47 AM 42.1575 -89.7831 286° West 413 475 26,400 1,024 Climbing Chicago Center
Mon 11:56:49 AM 42.1806 -89.9592 280° West 414 476 27,600 1,016 Climbing Chicago Center
Mon 11:57:51 AM 42.1869 -90.1144 273° West 418 481 28,500 927 Climbing Chicago Center
Mon 11:58:52 AM 42.1972 -90.2686 275° West 416 479 29,500 720 Climbing Chicago Center
Mon 11:59:56 AM 42.2075 -90.4286 275° West 427 491 30,000 476 Climbing Chicago Center
Mon 12:00:58 PM 42.2178 -90.5925 275° West 439 505 30,500 585 Climbing Chicago Center
Mon 12:01:59 PM 42.2325 -90.7928 276° West 450 518 31,200 634 Climbing Chicago Center
Mon 12:03:01 PM 42.2461 -90.9625 276° West 457 526 31,800 677 Climbing Chicago Center
Mon 12:04:03 PM 42.2614 -91.1356 277° West 467 537 32,600 585 Climbing Chicago Center
Mon 12:05:04 PM 42.3086 -91.2981 291° West 471 542 33,000 195 Climbing Chicago Center
Mon 12:06:06 PM 42.3722 -91.4569 298° West 481 554 33,000  Level Chicago Center
Mon 12:07:08 PM 42.4364 -91.6169 299° West 482 555 33,000  Level Chicago Center
Mon 12:08:10 PM 42.5003 -91.7792 298° West 486 559 33,000  Level Chicago Center
Mon 12:09:12 PM 42.5767 -91.9750 298° West 487 560 33,000 293 Level Chicago Center
Mon 12:10:13 PM 42.6406 -92.1383 298° West 488 562 33,600 488 Climbing Chicago Center
Mon 12:11:15 PM 42.7044 -92.3047 298° West 489 563 34,000 194 Climbing Chicago Center
Mon 12:12:17 PM 42.7664 -92.4669 298° West 493 567 34,000  Level Chicago Center
Mon 12:13:19 PM 42.8294 -92.6328 297° West 496 571 34,000  Level Chicago Center
Mon 12:14:13 PM 42.8919 -92.7922 298° West 487 560 34,000  Level Minneapolis Center
Mon 12:15:15 PM 42.9506 -92.9456 298° West 473 544 34,000  Level Minneapolis Center
Mon 12:16:17 PM 43.0075 -93.0992 297° West 464 534 34,000  Level Minneapolis Center
Mon 12:17:18 PM 43.0625 -93.2464 297° West 447 514 34,000  Level Minneapolis Center
Mon 12:18:20 PM 43.1081 -93.4008 292° West 446 513 34,000  Level Minneapolis Center
Mon 12:19:22 PM 43.1392 -93.5919 283° West 435 501 34,000  Level Minneapolis Center
Mon 12:20:23 PM 43.1678 -93.7519 284° West 437 503 34,000  Level Minneapolis Center
Mon 12:21:25 PM 43.1961 -93.9128 284° West 440 506 34,000  Level Minneapolis Center
Mon 12:22:27 PM 43.2244 -94.0769 283° West 446 513 34,000  Level Minneapolis Center
Mon 12:23:29 PM 43.2547 -94.2550 283° West 446 513 34,000  Level Minneapolis Center
Mon 12:24:31 PM 43.2822 -94.4181 283° West 442 509 34,000  Level Minneapolis Center
Mon 12:26:34 PM 43.3361 -94.7428 283° West 438 504 34,000  Level Minneapolis Center
Mon 12:27:36 PM 43.3678 -94.9400 283° West 442 509 34,000  Level Minneapolis Center
Mon 12:28:38 PM 43.3944 -95.1019 283° West 437 503 34,000  Level Minneapolis Center
Mon 12:29:40 PM 43.4214 -95.2697 283° West 447 514 34,000  Level Minneapolis Center
Mon 12:30:41 PM 43.4475 -95.4400 282° West 454 522 34,000  Level Minneapolis Center
Mon 12:31:43 PM 43.4742 -95.6086 282° West 453 521 34,000  Level Minneapolis Center
Mon 12:32:45 PM 43.4997 -95.7794 282° West 455 524 34,000  Level Minneapolis Center
Mon 12:33:47 PM 43.5264 -95.9522 282° West 460 529 34,000  Level Minneapolis Center
Mon 12:34:49 PM 43.5586 -96.1617 282° West 464 534 34,000  Level Minneapolis Center
Mon 12:35:50 PM 43.5844 -96.3367 282° West 465 535 34,000  Level Minneapolis Center
Mon 12:36:52 PM 43.6103 -96.5128 282° West 467 537 34,000  Level Minneapolis Center
Mon 12:37:54 PM 43.6356 -96.6883 281° West 466 536 34,000  Level Minneapolis Center
Mon 12:38:56 PM 43.6575 -96.8625 280° West 462 532 34,000  Level Minneapolis Center
Mon 12:39:58 PM 43.6694 -97.0386 275° West 460 529 34,000  Level Minneapolis Center
Mon 12:40:59 PM 43.6842 -97.2158 277° West 464 534 34,000  Level Minneapolis Center
Mon 12:42:01 PM 43.6975 -97.3917 276° West 462 532 34,000  Level Minneapolis Center
Mon 12:43:03 PM 43.7128 -97.6025 276° West 461 531 34,000  Level Minneapolis Center
Mon 12:44:05 PM 43.7244 -97.7797 275° West 462 532 34,000  Level Minneapolis Center
Mon 12:45:07 PM 43.7378 -97.9547 276° West 460 529 34,000  Level Minneapolis Center
Mon 12:46:09 PM 43.7494 -98.1314 275° West 462 532 34,000  Level Minneapolis Center
Mon 12:47:11 PM 43.7614 -98.3072 275° West 460 529 34,000  Level Minneapolis Center
Mon 12:48:13 PM 43.7728 -98.4833 275° West 462 532 34,000  Level Minneapolis Center
Mon 12:49:15 PM 43.7861 -98.6897 275° West 459 528 34,000  Level Minneapolis Center
Mon 12:50:17 PM 43.7978 -98.8656 275° West 459 528 34,000  Level Minneapolis Center
Mon 12:51:19 PM 43.8078 -99.0433 275° West 461 531 34,000  Level Minneapolis Center
Mon 12:52:21 PM 43.8194 -99.2200 275° West 460 529 34,000  Level Minneapolis Center
Mon 12:53:23 PM 43.8297 -99.3953 275° West 458 527 34,000  Level Minneapolis Center
Mon 12:54:25 PM 43.8397 -99.5706 275° West 456 525 34,000  Level Minneapolis Center
Mon 12:55:27 PM 43.8503 -99.7867 274° West 460 529 34,000  Level Minneapolis Center
Mon 12:56:29 PM 43.8597 -99.9697 274° West 467 537 34,000  Level Minneapolis Center
Mon 12:57:31 PM 43.8686 -100.1483 274° West 467 537 34,000  Level Minneapolis Center
Mon 12:58:33 PM 43.8769 -100.3306 274° West 469 540 34,000  Level Minneapolis Center
Mon 12:59:35 PM 43.8850 -100.5108 274° West 469 540 34,000  Level Minneapolis Center
Mon 01:01:19 PM 43.9000 -100.8406 274° West 471 542 34,000  Level Salt Lake Center
Mon 01:01:39 PM 43.9031 -100.8767 277° West 474 545 34,000  Level Minneapolis Center
Mon 01:02:41 PM 43.9103 -101.0589 273° West 473 544 34,000  Level Minneapolis Center
Mon 01:03:43 PM 43.9200 -101.2783 274° West 474 545 34,000  Level Minneapolis Center
Mon 01:04:45 PM 43.9256 -101.4594 273° West 473 544 34,000  Level Minneapolis Center
Mon 01:05:56 PM 43.9353 -101.6836 274° West 481 554 34,000  Level Denver Center
Mon 01:06:58 PM 43.9378 -101.8658 271° West 475 547 34,000  Level Denver Center
Mon 01:08:02 PM 43.9419 -102.0508 272° West 476 548 34,000  Level Denver Center
Mon 01:09:02 PM 43.9492 -102.2372 273° West 481 554 34,000  Level Denver Center
Mon 01:10:04 PM 43.9572 -102.4275 273° West 488 562 34,000  Level Denver Center
Mon 01:11:06 PM 43.9636 -102.6161 273° West 490 564 34,000  Level Denver Center
Mon 01:12:08 PM 43.9731 -102.8256 274° West 493 567 34,000  Level Denver Center
Mon 01:13:10 PM 43.9764 -103.0342 271° West 489 563 34,000  Level Denver Center
Mon 01:14:12 PM 43.9822 -103.2164 273° West 492 566 34,000  Level Denver Center
Mon 01:15:15 PM 43.9847 -103.4286 271° West 493 567 34,000  Level Denver Center
Mon 01:16:17 PM 43.9883 -103.6108 272° West 496 571 34,000  Level Denver Center
Mon 01:17:19 PM 43.9922 -103.8228 272° West 494 568 34,000  Level Denver Center
Mon 01:18:21 PM 43.9950 -104.0069 271° West 497 572 34,000  Level Denver Center
Mon 01:19:23 PM 43.9972 -104.2225 271° West 502 578 34,000  Level Denver Center
Mon 01:20:25 PM 43.9981 -104.4047 270° West 497 572 34,000  Level Denver Center
Mon 01:21:27 PM 43.9997 -104.6194 271° West 499 574 34,000  Level Denver Center
Mon 01:22:28 PM 44.0019 -104.7689 271° West 491 565 34,000  Level Denver Center
Mon 01:23:31 PM 44.0031 -105.0108 270° West 492 566 34,000  Level Denver Center
Mon 01:24:33 PM 44.0036 -105.1914 270° West 491 565 34,000  Level Denver Center
Mon 01:25:35 PM 44.0053 -105.4008 271° West 488 562 34,000  Level Denver Center
Mon 01:26:37 PM 44.0044 -105.5811 270° West 489 563 34,000  Level Denver Center
Mon 01:27:39 PM 44.0044 -105.7894 270° West 488 562 34,000  Level Denver Center
Mon 01:28:41 PM 44.0044 -105.9675 270° West 485 558 34,000  Level Denver Center
Mon 01:29:43 PM 44.0028 -106.1731 269° West 482 555 34,000  Level Denver Center
Mon 01:30:06 PM 44.0008 -106.2336 267° West 481 554 34,000  Level Salt Lake Center
Mon 01:31:08 PM 43.9997 -106.4106 270° West 478 550 34,000  Level Salt Lake Center
Mon 01:32:00 PM 44.0067 -106.5858 273° West 480 552 34,000  Level Denver Center
Mon 01:33:02 PM 44.0122 -106.7619 273° West 479 551 34,000  Level Denver Center
Mon 01:34:04 PM 44.0206 -106.9708 273° West 479 551 34,000  Level Denver Center
Mon 01:35:06 PM 44.0267 -107.1475 273° West 478 550 34,000  Level Denver Center
Mon 01:36:08 PM 44.0328 -107.3256 273° West 481 554 34,000  Level Denver Center
Mon 01:37:10 PM 44.0389 -107.5314 272° West 476 548 34,000  Level Denver Center
Mon 01:38:12 PM 44.0447 -107.7081 273° West 476 548 34,000  Level Denver Center
Mon 01:39:14 PM 44.0506 -107.9119 272° West 471 542 34,000  Level Denver Center
Mon 01:40:24 PM 44.0550 -108.1178 272° West 471 542 34,000  Level Salt Lake Center
Mon 01:41:26 PM 44.0600 -108.2919 272° West 470 541 34,000  Level Salt Lake Center
Mon 01:42:27 PM 44.0653 -108.4978 272° West 473 544 34,000  Level Salt Lake Center
Mon 01:43:29 PM 44.0689 -108.6719 272° West 472 543 34,000  Level Salt Lake Center
Mon 01:44:31 PM 44.0736 -108.8756 272° West 471 542 34,000  Level Salt Lake Center
Mon 01:45:33 PM 44.0772 -109.0508 272° West 471 542 34,000  Level Salt Lake Center
Mon 01:46:35 PM 44.0797 -109.2553 271° West 473 544 34,000  Level Salt Lake Center
Mon 01:47:37 PM 44.0822 -109.4297 271° West 472 543 34,000  Level Salt Lake Center
Mon 01:48:39 PM 44.0847 -109.6319 271° West 472 543 34,000  Level Salt Lake Center
Mon 01:49:41 PM 44.0869 -109.8081 271° West 474 545 34,000  Level Salt Lake Center
Mon 01:50:43 PM 44.0894 -109.9839 271° West 475 547 34,000  Level Salt Lake Center
Mon 01:52:00 PM 44.0879 -110.2028 270° West  Level FlightAware Approximate
Mon 01:52:46 PM 44.0928 -110.3664 270° West 476 548 34,000  Level Salt Lake Center
Mon 01:53:48 PM 44.0936 -110.5708 270° West 474 545 34,000  Level Salt Lake Center
Mon 01:54:51 PM 44.0936 -110.7456 270° West 471 542 34,000  Level Salt Lake Center
Mon 01:55:53 PM 44.0939 -110.9497 270° West 472 543 34,000  Level Salt Lake Center
Mon 01:56:55 PM 44.0944 -111.1225 270° West 469 540 34,000  Level Salt Lake Center
Mon 01:57:57 PM 44.0942 -111.3242 270° West 465 535 34,000  Level Salt Lake Center
Mon 01:58:59 PM 44.0936 -111.4986 270° West 468 539 34,000  Level Salt Lake Center
Mon 02:00:01 PM 44.0933 -111.6725 270° West 467 537 34,000  Level Salt Lake Center
Mon 02:01:03 PM 44.0931 -111.8736 270° West 465 535 34,000  Level Salt Lake Center
Mon 02:02:05 PM 44.0911 -112.0461 269° West 465 535 34,000  Level Salt Lake Center
Mon 02:03:07 PM 44.0844 -112.2431 267° West 458 527 34,000  Level Salt Lake Center
Mon 02:04:09 PM 44.0642 -112.4122 261° West 462 532 34,000  Level Salt Lake Center
Mon 02:05:11 PM 44.0433 -112.6094 262° West 460 529 34,000  Level Salt Lake Center
Mon 02:06:13 PM 44.0242 -112.7758 261° West 456 525 34,000  Level Salt Lake Center
Mon 02:07:15 PM 44.0000 -112.9694 260° West 455 524 34,000  Level Salt Lake Center
Mon 02:08:17 PM 43.9797 -113.1336 260° West 452 520 34,000  Level Salt Lake Center
Mon 02:09:19 PM 43.9597 -113.2989 261° West 452 520 34,000  Level Salt Lake Center
Mon 02:10:21 PM 43.9361 -113.4919 260° West 454 522 34,000  Level Salt Lake Center
Mon 02:11:23 PM 43.9158 -113.6592 261° West 456 525 34,000  Level Salt Lake Center
Mon 02:12:25 PM 43.8914 -113.8503 260° West 449 517 34,000 -581 Level Salt Lake Center
Mon 02:13:27 PM 43.8697 -114.0167 260° West 402 463 32,800 -1,645 Descending Salt Lake Center
Mon 02:14:29 PM 43.8517 -114.1617 260° West 399 459 30,600 -2,081 Descending Salt Lake Center
Mon 02:15:31 PM 43.8336 -114.3017 260° West 388 447 28,500 -2,226 Descending Salt Lake Center
Mon 02:16:33 PM 43.8128 -114.4619 260° West 380 437 26,000 -2,226 Descending Salt Lake Center
Mon 02:17:35 PM 43.7956 -114.5933 260° West 363 418 23,900 -2,177 Descending Salt Lake Center
Mon 02:18:37 PM 43.7753 -114.7411 259° West 349 402 21,500 -2,226 Descending Salt Lake Center
Mon 02:19:39 PM 43.7578 -114.8647 259° West 343 395 19,300 -2,129 Descending Salt Lake Center
Mon 02:20:41 PM 43.7381 -115.0061 259° West 335 386 17,100 -2,081 Descending Salt Lake Center
Mon 02:21:43 PM 43.7225 -115.1239 260° West 328 377 15,000 -1,548 Descending Salt Lake Center
Mon 02:22:45 PM 43.7039 -115.2578 259° West 318 366 13,900 -968 Descending Salt Lake Center
Mon 02:23:47 PM 43.6875 -115.3739 259° West 321 369 13,000 -435 Descending Salt Lake Center
Mon 02:24:49 PM 43.6672 -115.4986 257° West 311 358 13,000 -194 Level Salt Lake Center
Mon 02:25:51 PM 43.6278 -115.6053 243° Southwest 304 350 12,600 -968 Descending Salt Lake Center
Mon 02:26:53 PM 43.5925 -115.7075 245° Southwest 284 327 11,000 -1,500 Descending Salt Lake Center
Mon 02:27:55 PM 43.5622 -115.8003 246° West 277 319 9,500 -1,452 Descending Salt Lake Center
Mon 02:28:57 PM 43.5311 -115.8978 246° West 269 310 8,000 -1,355 Descending Salt Lake Center
Mon 02:29:59 PM 43.5014 -115.9925 247° West 259 298 6,700 -1,258 Descending Salt Lake Center
Mon 02:31:01 PM 43.5117 -116.0764 280° West 218 251 5,400 -1,258 Descending Salt Lake Center

Login

Don't have an account? Register now (free) for customized features, flight alerts, and more!